Time;durP1;ratioP1;P1;durP2;ratioP2;P2;SDS_P1;SDS_P2;PMS_P1;PMS_P2;Temp;Humidity;BMP_temperature;BMP_pressure;BME280_temperature;BME280_humidity;BME280_pressure;Samples;Min_cycle;Max_cycle;Signal;HPM_P1;HPM_P2
2021/09/07 00:00:12;;;;;;;3.33;3.04;;;;;;;20.74;71.72;101106.28;;;;-63
2021/09/07 00:03:13;;;;;;;3.13;2.82;;;;;;;20.73;71.71;101102.99;;;;-62
2021/09/07 00:06:14;;;;;;;3.28;2.98;;;;;;;20.72;71.74;101098.11;;;;-62
2021/09/07 00:09:13;;;;;;;3.10;2.80;;;;;;;20.72;71.79;101092.81;;;;-62
2021/09/07 00:12:13;;;;;;;3.17;2.91;;;;;;;20.72;71.76;101095.58;;;;-62
2021/09/07 00:15:12;;;;;;;3.19;2.92;;;;;;;20.72;71.80;101094.13;;;;-62
2021/09/07 00:18:12;;;;;;;3.09;2.79;;;;;;;20.71;71.71;101093.69;;;;-61
2021/09/07 00:21:12;;;;;;;3.43;3.13;;;;;;;20.71;71.81;101089.28;;;;-63
2021/09/07 00:24:13;;;;;;;3.50;2.88;;;;;;;20.70;71.74;101088.72;;;;-62
2021/09/07 00:27:12;;;;;;;3.25;2.95;;;;;;;20.70;71.75;101089.53;;;;-63
2021/09/07 00:30:13;;;;;;;3.21;2.93;;;;;;;20.69;71.81;101091.25;;;;-63
2021/09/07 00:33:12;;;;;;;3.22;2.92;;;;;;;20.69;71.79;101088.64;;;;-61
2021/09/07 00:36:12;;;;;;;3.47;3.03;;;;;;;20.68;71.73;101084.22;;;;-63
2021/09/07 00:39:13;;;;;;;3.14;2.87;;;;;;;20.68;71.75;101083.97;;;;-63
2021/09/07 00:42:12;;;;;;;3.27;2.94;;;;;;;20.68;71.77;101088.77;;;;-63
2021/09/07 00:45:13;;;;;;;3.15;2.87;;;;;;;20.67;71.78;101086.66;;;;-61
2021/09/07 00:48:12;;;;;;;3.24;2.89;;;;;;;20.67;71.75;101089.84;;;;-63
2021/09/07 00:51:12;;;;;;;3.26;2.96;;;;;;;20.67;71.81;101094.80;;;;-63
2021/09/07 00:54:12;;;;;;;3.17;2.85;;;;;;;20.67;71.79;101098.23;;;;-63
2021/09/07 00:57:13;;;;;;;3.30;3.00;;;;;;;20.67;71.79;101097.25;;;;-63
2021/09/07 01:00:12;;;;;;;2.89;2.69;;;;;;;20.66;71.78;101093.72;;;;-63
2021/09/07 01:03:12;;;;;;;3.15;2.85;;;;;;;20.66;71.78;101091.20;;;;-64
2021/09/07 01:06:12;;;;;;;3.42;3.12;;;;;;;20.66;71.74;101088.27;;;;-63
2021/09/07 01:09:12;;;;;;;3.17;2.87;;;;;;;20.65;71.79;101085.98;;;;-63
2021/09/07 01:12:13;;;;;;;3.10;2.80;;;;;;;20.66;71.72;101081.91;;;;-63
2021/09/07 01:15:13;;;;;;;2.97;2.77;;;;;;;20.65;71.76;101081.59;;;;-62
2021/09/07 01:18:12;;;;;;;3.29;2.99;;;;;;;20.66;71.72;101082.81;;;;-61
2021/09/07 01:21:12;;;;;;;3.17;2.89;;;;;;;20.65;71.74;101079.55;;;;-63
2021/09/07 01:24:13;;;;;;;3.07;2.83;;;;;;;20.64;71.75;101078.14;;;;-63
2021/09/07 01:27:12;;;;;;;3.46;3.16;;;;;;;20.64;71.77;101085.88;;;;-62
2021/09/07 01:30:14;;;;;;;3.31;3.01;;;;;;;20.64;71.76;101090.03;;;;-62
2021/09/07 01:33:12;;;;;;;3.21;2.91;;;;;;;20.63;71.76;101088.57;;;;-62
2021/09/07 01:36:12;;;;;;;3.02;2.81;;;;;;;20.64;71.69;101088.00;;;;-63
2021/09/07 01:39:13;;;;;;;3.21;2.91;;;;;;;20.64;71.76;101088.08;;;;-64
2021/09/07 01:42:13;;;;;;;2.93;2.73;;;;;;;20.62;71.78;101085.13;;;;-63
2021/09/07 01:45:13;;;;;;;3.39;3.09;;;;;;;20.62;71.76;101084.87;;;;-63
2021/09/07 01:48:12;;;;;;;3.43;3.12;;;;;;;20.61;71.73;101087.41;;;;-62
2021/09/07 01:51:12;;;;;;;3.18;2.89;;;;;;;20.62;71.72;101090.58;;;;-63
2021/09/07 01:54:13;;;;;;;3.23;2.96;;;;;;;20.61;71.71;101091.48;;;;-61
2021/09/07 01:57:12;;;;;;;3.41;3.09;;;;;;;20.62;71.80;101090.17;;;;-63
2021/09/07 02:00:13;;;;;;;3.29;2.99;;;;;;;20.61;71.70;101086.59;;;;-63
2021/09/07 02:03:12;;;;;;;3.19;2.89;;;;;;;20.60;71.78;101083.14;;;;-64
2021/09/07 02:06:12;;;;;;;3.10;2.69;;;;;;;20.60;71.66;101076.95;;;;-62
2021/09/07 02:09:12;;;;;;;3.39;3.09;;;;;;;20.60;71.65;101073.05;;;;-62
2021/09/07 02:12:12;;;;;;;3.03;2.83;;;;;;;20.60;71.69;101075.32;;;;-63
2021/09/07 02:15:12;;;;;;;3.21;2.91;;;;;;;20.60;71.69;101074.92;;;;-63
2021/09/07 02:18:12;;;;;;;3.26;2.93;;;;;;;20.60;71.74;101076.47;;;;-63
2021/09/07 02:21:12;;;;;;;3.26;2.89;;;;;;;20.59;71.72;101076.55;;;;-62
2021/09/07 02:24:13;;;;;;;3.20;2.91;;;;;;;20.59;71.74;101079.40;;;;-62
2021/09/07 02:27:12;;;;;;;3.39;3.09;;;;;;;20.59;71.70;101078.67;;;;-63
2021/09/07 02:30:13;;;;;;;3.00;2.80;;;;;;;20.58;71.67;101079.94;;;;-62
2021/09/07 02:33:12;;;;;;;3.07;2.83;;;;;;;20.58;71.71;101077.87;;;;-64
2021/09/07 02:36:12;;;;;;;3.39;2.81;;;;;;;20.58;71.76;101074.56;;;;-63
2021/09/07 02:39:14;;;;;;;3.12;2.82;;;;;;;20.57;71.76;101071.61;;;;-63
2021/09/07 02:42:12;;;;;;;3.40;3.10;;;;;;;20.57;71.71;101069.33;;;;-63
2021/09/07 02:45:12;;;;;;;3.27;2.97;;;;;;;20.56;71.78;101074.52;;;;-63
2021/09/07 02:48:12;;;;;;;3.24;2.94;;;;;;;20.56;71.80;101077.93;;;;-63
2021/09/07 02:51:12;;;;;;;3.27;3.01;;;;;;;20.56;71.71;101073.53;;;;-62
2021/09/07 02:54:12;;;;;;;3.07;2.86;;;;;;;20.56;71.71;101077.12;;;;-63
2021/09/07 02:57:12;;;;;;;3.15;2.90;;;;;;;20.56;71.76;101068.08;;;;-63
2021/09/07 03:00:12;;;;;;;3.41;3.11;;;;;;;20.56;71.70;101063.84;;;;-64
2021/09/07 03:03:13;;;;;;;2.96;2.76;;;;;;;20.56;71.77;101063.59;;;;-62
2021/09/07 03:06:12;;;;;;;3.02;2.79;;;;;;;20.56;71.77;101060.42;;;;-62
2021/09/07 03:09:12;;;;;;;3.23;2.93;;;;;;;20.55;71.75;101055.45;;;;-63
2021/09/07 03:12:12;;;;;;;3.23;2.93;;;;;;;20.56;71.73;101053.75;;;;-62
2021/09/07 03:15:13;;;;;;;3.20;2.93;;;;;;;20.55;71.71;101055.54;;;;-63
2021/09/07 03:18:12;;;;;;;3.31;3.00;;;;;;;20.55;71.75;101051.72;;;;-62
2021/09/07 03:21:12;;;;;;;3.33;3.03;;;;;;;20.54;71.71;101051.72;;;;-63
2021/09/07 03:24:12;;;;;;;3.09;2.89;;;;;;;20.54;71.78;101054.70;;;;-62
2021/09/07 03:27:13;;;;;;;3.32;3.02;;;;;;;20.54;71.76;101056.44;;;;-64
2021/09/07 03:30:12;;;;;;;3.31;3.03;;;;;;;20.54;71.70;101052.50;;;;-64
2021/09/07 03:33:12;;;;;;;3.54;3.24;;;;;;;20.55;71.64;101051.14;;;;-62
2021/09/07 03:36:12;;;;;;;3.41;3.11;;;;;;;20.54;71.68;101052.99;;;;-62
2021/09/07 03:39:13;;;;;;;3.16;2.90;;;;;;;20.54;71.65;101050.87;;;;-61
2021/09/07 03:42:12;;;;;;;3.40;3.10;;;;;;;20.54;71.70;101048.84;;;;-61
2021/09/07 03:45:14;;;;;;;3.20;2.90;;;;;;;20.53;71.65;101046.16;;;;-62
2021/09/07 03:48:12;;;;;;;3.33;3.03;;;;;;;20.53;71.70;101046.89;;;;-61
2021/09/07 03:51:12;;;;;;;3.29;2.99;;;;;;;20.53;71.72;101051.94;;;;-63
2021/09/07 03:54:12;;;;;;;3.03;2.83;;;;;;;20.52;71.71;101055.11;;;;-63
2021/09/07 03:57:12;;;;;;;3.30;3.00;;;;;;;20.51;71.71;101047.59;;;;-63
2021/09/07 04:00:12;;;;;;;3.47;3.17;;;;;;;20.52;71.73;101045.39;;;;-63
2021/09/07 04:03:12;;;;;;;3.49;3.19;;;;;;;20.52;71.73;101047.34;;;;-63
2021/09/07 04:06:12;;;;;;;3.51;3.21;;;;;;;20.52;71.63;101049.14;;;;-63
2021/09/07 04:09:12;;;;;;;3.35;3.05;;;;;;;20.51;71.67;101047.92;;;;-63
2021/09/07 04:12:12;;;;;;;3.41;3.11;;;;;;;20.51;71.67;101051.17;;;;-62
2021/09/07 04:15:12;;;;;;;3.61;3.31;;;;;;;20.52;71.68;101056.47;;;;-64
2021/09/07 04:18:12;;;;;;;3.20;2.92;;;;;;;20.51;71.70;101056.23;;;;-63
2021/09/07 04:21:12;;;;;;;3.50;3.20;;;;;;;20.51;71.67;101054.84;;;;-63
2021/09/07 04:24:12;;;;;;;3.49;3.17;;;;;;;20.51;71.70;101050.36;;;;-63
2021/09/07 04:27:12;;;;;;;3.37;3.07;;;;;;;20.51;71.63;101050.36;;;;-63
2021/09/07 04:30:12;;;;;;;3.39;3.09;;;;;;;20.51;71.70;101051.50;;;;-63
2021/09/07 04:33:13;;;;;;;3.39;3.09;;;;;;;20.51;71.61;101051.91;;;;-62
2021/09/07 04:36:12;;;;;;;3.33;3.03;;;;;;;20.50;71.66;101054.11;;;;-62
2021/09/07 04:39:12;;;;;;;3.20;2.99;;;;;;;20.51;71.67;101061.36;;;;-62
2021/09/07 04:42:12;;;;;;;3.48;3.18;;;;;;;20.50;71.70;101064.59;;;;-61
2021/09/07 04:45:12;;;;;;;3.57;3.27;;;;;;;20.50;71.63;101059.70;;;;-62
2021/09/07 04:48:12;;;;;;;3.50;3.20;;;;;;;20.49;71.62;101057.83;;;;-62
2021/09/07 04:51:12;;;;;;;3.49;3.19;;;;;;;20.49;71.70;101059.70;;;;-62
2021/09/07 04:54:12;;;;;;;3.36;3.06;;;;;;;20.48;71.63;101064.27;;;;-62
2021/09/07 04:57:12;;;;;;;3.45;3.15;;;;;;;20.49;71.65;101070.29;;;;-62
2021/09/07 05:00:13;;;;;;;3.48;3.18;;;;;;;20.48;71.72;101070.05;;;;-61
2021/09/07 05:03:13;;;;;;;3.51;3.21;;;;;;;20.48;71.74;101068.25;;;;-61
2021/09/07 05:06:12;;;;;;;3.44;3.14;;;;;;;20.48;71.69;101069.15;;;;-62
2021/09/07 05:09:12;;;;;;;3.48;3.18;;;;;;;20.48;71.67;101073.87;;;;-62
2021/09/07 05:12:12;;;;;;;3.43;3.13;;;;;;;20.48;71.70;101076.56;;;;-62
2021/09/07 05:15:12;;;;;;;3.83;3.33;;;;;;;20.47;71.67;101079.22;;;;-62
2021/09/07 05:18:12;;;;;;;3.59;3.29;;;;;;;20.47;71.69;101077.52;;;;-63
2021/09/07 05:21:12;;;;;;;3.51;3.21;;;;;;;20.47;71.71;101081.25;;;;-63
2021/09/07 05:24:12;;;;;;;3.55;3.25;;;;;;;20.47;71.70;101080.93;;;;-60
2021/09/07 05:27:12;;;;;;;3.75;3.41;;;;;;;20.47;71.67;101078.41;;;;-63
2021/09/07 05:30:13;;;;;;;3.37;3.07;;;;;;;20.47;71.71;101077.92;;;;-63
2021/09/07 05:33:12;;;;;;;3.45;3.15;;;;;;;20.47;71.73;101075.80;;;;-63
2021/09/07 05:36:12;;;;;;;3.73;3.16;;;;;;;20.47;71.68;101077.52;;;;-63
2021/09/07 05:39:12;;;;;;;3.70;3.40;;;;;;;20.46;71.71;101083.86;;;;-62
2021/09/07 05:42:12;;;;;;;3.47;3.17;;;;;;;20.47;71.70;101087.20;;;;-62
2021/09/07 05:45:12;;;;;;;3.47;3.17;;;;;;;20.46;71.70;101085.17;;;;-63
2021/09/07 05:48:12;;;;;;;3.59;3.29;;;;;;;20.46;71.73;101093.88;;;;-62
2021/09/07 05:51:13;;;;;;;3.39;3.09;;;;;;;20.46;71.69;101090.38;;;;-62
2021/09/07 05:54:13;;;;;;;3.45;3.15;;;;;;;20.46;71.73;101088.23;;;;-64
2021/09/07 05:57:12;;;;;;;3.43;3.13;;;;;;;20.45;71.72;101094.02;;;;-62
2021/09/07 06:00:12;;;;;;;3.56;3.25;;;;;;;20.46;71.75;101102.72;;;;-63
2021/09/07 06:03:12;;;;;;;3.40;3.10;;;;;;;20.45;71.72;101103.12;;;;-62
2021/09/07 06:06:13;;;;;;;3.48;3.18;;;;;;;20.45;71.75;101105.58;;;;-62
2021/09/07 06:09:12;;;;;;;3.81;3.51;;;;;;;20.45;71.68;101106.47;;;;-63
2021/09/07 06:12:12;;;;;;;3.73;3.37;;;;;;;20.45;71.78;101108.17;;;;-62
2021/09/07 06:15:12;;;;;;;3.47;3.17;;;;;;;20.45;71.79;101110.70;;;;-62
2021/09/07 06:18:12;;;;;;;3.42;3.12;;;;;;;20.45;71.70;101114.61;;;;-64
2021/09/07 06:21:12;;;;;;;3.32;3.02;;;;;;;20.45;71.73;101112.58;;;;-63
2021/09/07 06:24:12;;;;;;;3.38;3.08;;;;;;;20.46;71.72;101112.98;;;;-62
2021/09/07 06:27:12;;;;;;;3.55;3.25;;;;;;;20.45;71.71;101113.55;;;;-63
2021/09/07 06:30:12;;;;;;;3.53;3.20;;;;;;;20.45;71.73;101121.37;;;;-63
2021/09/07 06:33:12;;;;;;;3.60;3.29;;;;;;;20.45;71.79;101124.38;;;;-63
2021/09/07 06:36:12;;;;;;;3.51;3.21;;;;;;;20.44;71.78;101129.52;;;;-58
2021/09/07 06:39:12;;;;;;;3.30;3.00;;;;;;;20.44;71.78;101126.83;;;;-59
2021/09/07 06:42:13;;;;;;;3.44;3.14;;;;;;;20.44;71.75;101131.06;;;;-59
2021/09/07 06:45:12;;;;;;;3.39;3.09;;;;;;;20.44;71.79;101146.53;;;;-58
2021/09/07 06:48:13;;;;;;;3.44;3.14;;;;;;;20.44;71.73;101154.64;;;;-59
2021/09/07 06:51:12;;;;;;;3.72;3.41;;;;;;;20.44;71.71;101150.19;;;;-61
2021/09/07 06:54:12;;;;;;;3.69;3.39;;;;;;;20.43;71.73;101145.28;;;;-62
2021/09/07 06:57:12;;;;;;;3.47;3.17;;;;;;;20.43;71.80;101144.55;;;;-59
2021/09/07 07:00:12;;;;;;;3.41;3.11;;;;;;;20.43;71.77;101139.66;;;;-60
2021/09/07 07:03:12;;;;;;;3.12;2.91;;;;;;;20.43;71.77;101140.48;;;;-58
2021/09/07 07:06:12;;;;;;;3.35;3.05;;;;;;;20.43;71.77;101142.92;;;;-58
2021/09/07 07:09:12;;;;;;;3.31;3.01;;;;;;;20.42;71.75;101147.07;;;;-58
2021/09/07 07:12:12;;;;;;;3.40;3.10;;;;;;;20.42;71.75;101152.28;;;;-58
2021/09/07 07:15:12;;;;;;;3.49;3.19;;;;;;;20.43;71.75;101153.91;;;;-62
2021/09/07 07:18:12;;;;;;;3.50;3.20;;;;;;;20.43;71.78;101150.25;;;;-63
2021/09/07 07:21:12;;;;;;;3.42;3.12;;;;;;;20.43;71.77;101151.47;;;;-60
2021/09/07 07:24:14;;;;;;;3.25;2.99;;;;;;;20.43;71.77;101153.99;;;;-60
2021/09/07 07:27:12;;;;;;;3.43;3.15;;;;;;;20.43;71.77;101153.99;;;;-60
2021/09/07 07:30:12;;;;;;;3.39;3.09;;;;;;;20.42;71.78;101150.45;;;;-59
2021/09/07 07:33:14;;;;;;;3.09;2.88;;;;;;;20.42;71.74;101151.52;;;;-60
2021/09/07 07:36:12;;;;;;;3.33;3.03;;;;;;;20.42;71.76;101155.83;;;;-62
2021/09/07 07:39:12;;;;;;;3.41;3.11;;;;;;;20.43;71.76;101157.66;;;;-63
2021/09/07 07:42:12;;;;;;;3.36;3.06;;;;;;;20.43;71.73;101157.58;;;;-62
2021/09/07 07:45:12;;;;;;;3.38;3.05;;;;;;;20.43;71.77;101156.92;;;;-63
2021/09/07 07:48:12;;;;;;;3.50;3.20;;;;;;;20.42;71.81;101156.52;;;;-63
2021/09/07 07:51:12;;;;;;;3.82;3.01;;;;;;;20.44;72.06;101157.98;;;;-53
2021/09/07 07:54:13;;;;;;;6.53;5.21;;;;;;;20.43;71.77;101163.52;;;;-53
2021/09/07 07:57:15;;;;;;;4.93;4.44;;;;;;;20.43;71.88;101164.98;;;;-52
2021/09/07 08:00:12;;;;;;;11.63;5.30;;;;;;;20.45;72.02;101162.33;;;;-59
2021/09/07 08:03:12;;;;;;;6.69;4.88;;;;;;;20.47;71.91;101164.22;;;;-59
2021/09/07 08:06:12;;;;;;;5.26;4.31;;;;;;;20.48;72.06;101166.94;;;;-53
2021/09/07 08:09:12;;;;;;;6.77;4.52;;;;;;;20.48;72.07;101164.34;;;;-59
2021/09/07 08:12:16;;;;;;;5.47;4.65;;;;;;;20.49;72.00;101160.02;;;;-54
2021/09/07 08:15:12;;;;;;;5.30;4.07;;;;;;;20.50;71.92;101162.73;;;;-54
2021/09/07 08:18:12;;;;;;;5.37;4.17;;;;;;;20.52;71.94;101166.23;;;;-53
2021/09/07 08:21:12;;;;;;;4.41;3.99;;;;;;;20.52;71.91;101169.81;;;;-54
2021/09/07 08:24:12;;;;;;;5.83;4.31;;;;;;;20.52;71.88;101165.69;;;;-52
2021/09/07 08:27:12;;;;;;;4.73;4.18;;;;;;;20.53;71.80;101175.38;;;;-53
2021/09/07 08:30:14;;;;;;;4.72;4.22;;;;;;;20.53;71.82;101178.23;;;;-53
2021/09/07 08:33:12;;;;;;;5.36;4.22;;;;;;;20.53;71.88;101183.45;;;;-50
2021/09/07 08:36:12;;;;;;;6.03;4.19;;;;;;;20.53;71.86;101184.09;;;;-51
2021/09/07 08:39:15;;;;;;;4.67;3.99;;;;;;;20.53;71.74;101181.33;;;;-60
2021/09/07 08:42:12;;;;;;;5.34;3.96;;;;;;;20.54;71.73;101184.34;;;;-53
2021/09/07 08:45:12;;;;;;;3.93;3.59;;;;;;;20.54;71.76;101184.34;;;;-53
2021/09/07 08:48:12;;;;;;;4.85;3.79;;;;;;;20.54;71.73;101185.15;;;;-54
2021/09/07 08:51:12;;;;;;;4.27;3.80;;;;;;;20.53;71.70;101185.39;;;;-53
2021/09/07 08:54:13;;;;;;;5.91;4.13;;;;;;;20.55;71.72;101185.83;;;;-51
2021/09/07 08:57:12;;;;;;;4.89;4.17;;;;;;;20.54;71.68;101184.98;;;;-52
2021/09/07 09:00:12;;;;;;;4.59;3.99;;;;;;;20.54;71.68;101185.55;;;;-52
2021/09/07 09:03:13;;;;;;;4.63;3.85;;;;;;;20.54;71.70;101180.43;;;;-51
2021/09/07 09:06:12;;;;;;;4.29;3.89;;;;;;;20.54;71.69;101181.08;;;;-53
2021/09/07 09:09:13;;;;;;;4.57;3.91;;;;;;;20.55;71.67;101180.21;;;;-53
2021/09/07 09:12:12;;;;;;;4.33;3.93;;;;;;;20.54;71.69;101176.95;;;;-53
2021/09/07 09:15:12;;;;;;;4.85;4.09;;;;;;;20.55;71.65;101178.34;;;;-51
2021/09/07 09:18:12;;;;;;;5.44;3.82;;;;;;;20.55;71.63;101176.39;;;;-51
2021/09/07 09:21:12;;;;;;;3.99;3.59;;;;;;;20.55;71.64;101177.94;;;;-54
2021/09/07 09:24:12;;;;;;;4.58;3.96;;;;;;;20.56;71.64;101180.78;;;;-53
2021/09/07 09:27:13;;;;;;;8.07;3.83;;;;;;;20.57;71.90;101182.03;;;;-56
2021/09/07 09:30:12;;;;;;;7.12;4.23;;;;;;;20.57;71.95;101175.27;;;;-52
2021/09/07 09:33:12;;;;;;;6.93;3.86;;;;;;;20.59;72.06;101172.89;;;;-50
2021/09/07 09:36:12;;;;;;;4.07;3.67;;;;;;;20.62;72.30;101169.81;;;;-51
2021/09/07 09:39:12;;;;;;;5.54;3.81;;;;;;;20.64;72.34;101167.56;;;;-60
2021/09/07 09:42:12;;;;;;;4.85;3.87;;;;;;;20.65;72.30;101168.09;;;;-59
2021/09/07 09:45:12;;;;;;;4.28;3.83;;;;;;;20.66;72.47;101168.16;;;;-60
2021/09/07 09:48:12;;;;;;;4.17;3.77;;;;;;;20.67;72.39;101167.22;;;;-48
2021/09/07 09:51:12;;;;;;;6.25;3.93;;;;;;;20.68;72.46;101168.76;;;;-55
2021/09/07 09:54:12;;;;;;;6.73;4.15;;;;;;;20.70;72.51;101166.66;;;;-58
2021/09/07 09:57:12;;;;;;;6.54;4.00;;;;;;;20.71;72.50;101165.61;;;;-57
2021/09/07 10:00:12;;;;;;;5.16;4.15;;;;;;;20.72;72.43;101162.13;;;;-53
2021/09/07 10:03:13;;;;;;;4.32;3.92;;;;;;;20.72;72.41;101159.53;;;;-53
2021/09/07 10:06:12;;;;;;;4.37;3.95;;;;;;;20.73;72.41;101158.82;;;;-50
2021/09/07 10:09:12;;;;;;;4.91;3.90;;;;;;;20.74;72.35;101154.58;;;;-50
2021/09/07 10:12:12;;;;;;;4.56;3.99;;;;;;;20.76;72.50;101151.19;;;;-52
2021/09/07 10:15:19;;;;;;;6.42;3.90;;;;;;;20.77;72.39;101151.10;;;;-55
2021/09/07 10:18:17;;;;;;;4.96;3.91;;;;;;;20.78;72.31;101150.31;;;;-61
2021/09/07 10:23:01;;;;;;;4.44;4.03;;;;;;;20.78;72.33;101143.39;;;;-60
2021/09/07 10:24:19;;;;;;;5.16;3.79;;;;;;;20.79;72.30;101141.44;;;;-53
2021/09/07 10:27:12;;;;;;;4.48;4.03;;;;;;;20.80;72.25;101136.16;;;;-52
2021/09/07 10:30:12;;;;;;;7.59;4.05;;;;;;;20.81;72.25;101132.58;;;;-60
2021/09/07 10:33:12;;;;;;;5.35;3.85;;;;;;;20.80;72.29;101132.58;;;;-60
2021/09/07 10:36:12;;;;;;;5.10;3.80;;;;;;;20.80;72.24;101128.42;;;;-61
2021/09/07 10:39:12;;;;;;;6.01;3.72;;;;;;;20.79;72.17;101126.14;;;;-61
2021/09/07 10:42:12;;;;;;;6.07;3.75;;;;;;;20.79;72.18;101124.08;;;;-61
2021/09/07 10:45:12;;;;;;;9.42;3.85;;;;;;;20.78;72.21;101119.44;;;;-57
2021/09/07 10:48:12;;;;;;;8.22;4.02;;;;;;;20.78;72.20;101122.20;;;;-59
2021/09/07 10:51:12;;;;;;;4.68;3.82;;;;;;;20.79;72.22;101117.56;;;;-55
2021/09/07 10:54:12;;;;;;;5.42;3.83;;;;;;;20.79;72.18;101114.58;;;;-54
2021/09/07 10:57:12;;;;;;;4.52;3.82;;;;;;;20.80;72.18;101107.16;;;;-55
2021/09/07 11:00:12;;;;;;;6.05;4.14;;;;;;;20.81;72.16;101104.87;;;;-58
2021/09/07 11:03:12;;;;;;;4.79;3.88;;;;;;;20.83;72.11;101099.61;;;;-61
2021/09/07 11:06:12;;;;;;;4.31;3.88;;;;;;;20.84;72.08;101092.95;;;;-54
2021/09/07 11:09:12;;;;;;;5.76;3.80;;;;;;;20.85;72.07;101094.91;;;;-54
2021/09/07 11:12:12;;;;;;;7.39;3.85;;;;;;;20.86;72.18;101096.89;;;;-59
2021/09/07 11:15:12;;;;;;;5.63;4.11;;;;;;;20.87;72.10;101087.19;;;;-63
2021/09/07 11:18:12;;;;;;;6.77;4.11;;;;;;;20.87;72.05;101082.70;;;;-61
2021/09/07 11:21:12;;;;;;;6.07;4.19;;;;;;;20.87;71.94;101084.58;;;;-55
2021/09/07 11:24:13;;;;;;;4.58;4.03;;;;;;;20.86;72.13;101083.28;;;;-55
2021/09/07 11:27:12;;;;;;;5.15;4.20;;;;;;;20.86;71.97;101081.73;;;;-59
2021/09/07 11:30:12;;;;;;;4.74;4.18;;;;;;;20.86;71.96;101081.73;;;;-60
2021/09/07 11:33:12;;;;;;;5.23;4.20;;;;;;;20.84;71.91;101078.78;;;;-60
2021/09/07 11:36:12;;;;;;;5.48;4.39;;;;;;;20.85;71.85;101076.90;;;;-60
2021/09/07 11:39:12;;;;;;;5.69;4.06;;;;;;;20.85;71.85;101078.77;;;;-60
2021/09/07 11:42:12;;;;;;;5.30;3.93;;;;;;;20.84;71.82;101078.86;;;;-51
2021/09/07 11:45:12;;;;;;;5.96;4.03;;;;;;;20.84;71.78;101074.78;;;;-51
2021/09/07 11:48:12;;;;;;;6.17;3.99;;;;;;;20.84;71.85;101075.92;;;;-52
2021/09/07 11:51:13;;;;;;;4.77;4.21;;;;;;;20.84;71.77;101070.63;;;;-60
2021/09/07 11:54:12;;;;;;;4.36;3.96;;;;;;;20.83;71.75;101069.38;;;;-59
2021/09/07 11:57:12;;;;;;;5.13;3.90;;;;;;;20.83;71.80;101067.02;;;;-60
2021/09/07 12:00:12;;;;;;;4.35;3.95;;;;;;;20.84;71.68;101064.93;;;;-60
2021/09/07 12:03:12;;;;;;;4.25;3.85;;;;;;;20.83;71.69;101060.67;;;;-59
2021/09/07 12:06:13;;;;;;;4.27;3.82;;;;;;;20.83;71.70;101061.56;;;;-59
2021/09/07 12:09:12;;;;;;;4.51;4.11;;;;;;;20.83;71.72;101064.66;;;;-60
2021/09/07 12:12:13;;;;;;;5.14;3.86;;;;;;;20.83;71.70;101057.73;;;;-59
2021/09/07 12:15:12;;;;;;;4.52;4.09;;;;;;;20.83;71.65;101051.78;;;;-59
2021/09/07 12:18:12;;;;;;;4.46;3.97;;;;;;;20.82;71.69;101049.19;;;;-52
2021/09/07 12:21:12;;;;;;;4.29;3.89;;;;;;;20.82;71.69;101050.65;;;;-55
2021/09/07 12:24:12;;;;;;;4.69;3.73;;;;;;;20.82;71.59;101044.30;;;;-55
2021/09/07 12:27:12;;;;;;;4.59;3.82;;;;;;;20.82;71.71;101040.14;;;;-55
2021/09/07 12:30:12;;;;;;;4.16;3.76;;;;;;;20.83;71.57;101042.33;;;;-51
2021/09/07 12:33:13;;;;;;;6.02;3.89;;;;;;;20.84;71.62;101033.16;;;;-51
2021/09/07 12:36:12;;;;;;;7.03;4.04;;;;;;;20.85;71.73;101030.13;;;;-61
2021/09/07 12:39:12;;;;;;;5.17;4.09;;;;;;;20.86;71.68;101031.22;;;;-55
2021/09/07 12:42:12;;;;;;;4.57;4.09;;;;;;;20.87;71.68;101029.02;;;;-57
2021/09/07 12:45:12;;;;;;;4.20;3.80;;;;;;;20.87;71.91;101021.69;;;;-54
2021/09/07 12:48:12;;;;;;;5.42;3.97;;;;;;;20.87;71.87;101018.27;;;;-51
2021/09/07 12:51:12;;;;;;;4.83;4.03;;;;;;;20.89;71.70;101014.21;;;;-54
2021/09/07 12:54:16;;;;;;;5.49;4.03;;;;;;;20.90;71.80;101014.07;;;;-59
2021/09/07 12:57:12;;;;;;;4.75;3.86;;;;;;;20.90;71.84;101011.38;;;;-60
2021/09/07 13:00:12;;;;;;;5.40;3.87;;;;;;;20.91;71.71;101009.02;;;;-60
2021/09/07 13:03:13;;;;;;;6.01;4.29;;;;;;;20.91;71.79;101006.33;;;;-61
2021/09/07 13:06:12;;;;;;;10.53;4.53;;;;;;;20.94;72.02;101004.91;;;;-53
2021/09/07 13:09:12;;;;;;;6.37;4.38;;;;;;;20.95;71.78;101000.66;;;;-50
2021/09/07 13:12:14;;;;;;;6.97;4.37;;;;;;;20.96;71.87;101004.52;;;;-55
2021/09/07 13:15:12;;;;;;;6.33;4.28;;;;;;;20.96;72.07;100992.70;;;;-50
2021/09/07 13:18:12;;;;;;;6.28;4.26;;;;;;;20.99;71.89;100987.82;;;;-57
2021/09/07 13:21:15;;;;;;;7.08;4.47;;;;;;;21.00;72.25;100984.97;;;;-58
2021/09/07 13:24:12;;;;;;;6.21;4.19;;;;;;;21.02;72.01;100980.26;;;;-61
2021/09/07 13:27:12;;;;;;;10.61;4.31;;;;;;;21.03;72.07;100978.33;;;;-58
2021/09/07 13:30:12;;;;;;;8.27;4.55;;;;;;;21.04;72.11;100975.95;;;;-58
2021/09/07 13:33:12;;;;;;;7.91;4.31;;;;;;;21.05;72.02;100972.47;;;;-59
2021/09/07 13:36:12;;;;;;;8.15;4.30;;;;;;;21.04;72.01;100966.17;;;;-59
2021/09/07 13:39:12;;;;;;;11.09;4.42;;;;;;;21.04;72.15;100964.06;;;;-51
2021/09/07 13:42:12;;;;;;;6.29;4.09;;;;;;;21.05;72.17;100959.27;;;;-56
2021/09/07 13:45:12;;;;;;;7.05;4.41;;;;;;;21.05;72.11;100966.60;;;;-54
2021/09/07 13:48:12;;;;;;;6.29;4.00;;;;;;;21.06;72.07;100960.16;;;;-59
2021/09/07 13:51:13;;;;;;;5.47;4.17;;;;;;;21.06;72.05;100957.55;;;;-56
2021/09/07 13:54:12;;;;;;;8.87;4.57;;;;;;;21.05;72.12;100954.22;;;;-62
2021/09/07 13:57:12;;;;;;;6.74;4.30;;;;;;;21.06;72.05;100952.17;;;;-51
2021/09/07 14:00:12;;;;;;;13.79;4.63;;;;;;;21.06;72.06;100949.23;;;;-54
2021/09/07 14:03:12;;;;;;;4.90;3.99;;;;;;;21.07;72.07;100945.84;;;;-52
2021/09/07 14:06:12;;;;;;;6.27;4.23;;;;;;;21.07;71.94;100944.61;;;;-62
2021/09/07 14:09:12;;;;;;;6.66;4.49;;;;;;;21.08;71.99;100942.08;;;;-60
2021/09/07 14:12:12;;;;;;;5.53;4.37;;;;;;;21.08;72.01;100936.14;;;;-57
2021/09/07 14:15:12;;;;;;;7.26;4.29;;;;;;;21.09;72.03;100935.34;;;;-50
2021/09/07 14:18:12;;;;;;;4.81;3.98;;;;;;;21.10;72.00;100929.06;;;;-57
2021/09/07 14:21:12;;;;;;;7.81;4.03;;;;;;;21.10;72.00;100931.67;;;;-56
2021/09/07 14:24:12;;;;;;;5.30;4.07;;;;;;;21.11;72.04;100924.92;;;;-59
2021/09/07 14:27:12;;;;;;;5.67;4.09;;;;;;;21.12;71.99;100920.36;;;;-54
2021/09/07 14:30:12;;;;;;;7.71;3.89;;;;;;;21.12;71.95;100919.22;;;;-54
2021/09/07 14:33:12;;;;;;;6.67;4.02;;;;;;;21.11;71.86;100913.76;;;;-63
2021/09/07 14:36:12;;;;;;;5.15;4.30;;;;;;;21.13;71.97;100910.60;;;;-61
2021/09/07 14:39:12;;;;;;;6.37;4.05;;;;;;;21.13;71.88;100913.78;;;;-58
2021/09/07 14:42:12;;;;;;;6.71;4.05;;;;;;;21.14;71.82;100909.70;;;;-60
2021/09/07 14:45:12;;;;;;;4.74;3.84;;;;;;;21.15;71.87;100911.83;;;;-59
2021/09/07 14:48:15;;;;;;;5.58;3.95;;;;;;;21.15;71.95;100909.55;;;;-59
2021/09/07 14:51:12;;;;;;;5.91;4.29;;;;;;;21.15;71.94;100911.18;;;;-63
2021/09/07 14:54:12;;;;;;;5.29;4.07;;;;;;;21.16;71.97;100907.09;;;;-64
2021/09/07 14:57:12;;;;;;;5.09;4.03;;;;;;;21.17;71.84;100905.98;;;;-61
2021/09/07 15:00:12;;;;;;;4.74;3.90;;;;;;;21.17;71.88;100904.10;;;;-60
2021/09/07 15:03:12;;;;;;;7.39;4.15;;;;;;;21.19;71.93;100901.19;;;;-60
2021/09/07 15:06:12;;;;;;;5.79;4.03;;;;;;;21.18;71.96;100900.51;;;;-57
2021/09/07 15:09:12;;;;;;;6.05;3.95;;;;;;;21.18;71.88;100902.30;;;;-57
2021/09/07 15:12:12;;;;;;;6.60;3.98;;;;;;;21.19;72.05;100901.84;;;;-62
2021/09/07 15:15:12;;;;;;;6.90;3.77;;;;;;;21.18;71.99;100900.10;;;;-54
2021/09/07 15:18:12;;;;;;;7.88;3.83;;;;;;;21.19;71.96;100898.33;;;;-60
2021/09/07 15:21:12;;;;;;;5.01;3.93;;;;;;;21.19;71.90;100893.52;;;;-60
2021/09/07 15:24:12;;;;;;;6.01;3.95;;;;;;;21.18;71.85;100891.78;;;;-60
2021/09/07 15:27:12;;;;;;;6.23;3.84;;;;;;;21.17;71.85;100888.95;;;;-52
2021/09/07 15:30:14;;;;;;;5.45;3.68;;;;;;;21.17;71.84;100888.62;;;;-53
2021/09/07 15:33:12;;;;;;;4.95;4.18;;;;;;;21.17;71.86;100886.17;;;;-54
2021/09/07 15:36:12;;;;;;;6.06;4.17;;;;;;;21.16;71.72;100888.52;;;;-53
2021/09/07 15:39:13;;;;;;;4.59;3.83;;;;;;;21.16;71.75;100891.70;;;;-54
2021/09/07 15:42:12;;;;;;;5.13;3.70;;;;;;;21.14;71.70;100889.56;;;;-59
2021/09/07 15:45:12;;;;;;;6.33;3.80;;;;;;;21.15;71.88;100888.03;;;;-61
2021/09/07 15:48:12;;;;;;;6.75;3.79;;;;;;;21.15;71.75;100885.27;;;;-59
2021/09/07 15:51:12;;;;;;;5.85;3.89;;;;;;;21.15;71.88;100879.88;;;;-52
2021/09/07 15:54:13;;;;;;;5.43;3.85;;;;;;;21.17;71.80;100878.76;;;;-52
2021/09/07 15:57:12;;;;;;;5.52;3.65;;;;;;;21.18;71.83;100876.06;;;;-61
2021/09/07 16:00:12;;;;;;;4.62;3.81;;;;;;;21.18;71.87;100875.65;;;;-58
2021/09/07 16:03:12;;;;;;;19.66;4.27;;;;;;;21.18;71.83;100869.05;;;;-58
2021/09/07 16:06:12;;;;;;;12.50;4.27;;;;;;;21.18;71.84;100866.03;;;;-60
2021/09/07 16:09:12;;;;;;;9.97;3.85;;;;;;;21.19;71.98;100864.67;;;;-59
2021/09/07 16:12:12;;;;;;;6.38;3.90;;;;;;;21.19;71.93;100864.02;;;;-63
2021/09/07 16:15:12;;;;;;;4.35;3.42;;;;;;;21.19;71.86;100862.22;;;;-65
2021/09/07 16:18:12;;;;;;;5.92;3.61;;;;;;;21.20;71.87;100860.02;;;;-65
2021/09/07 16:21:12;;;;;;;4.72;3.55;;;;;;;21.21;71.85;100856.94;;;;-66
2021/09/07 16:24:12;;;;;;;8.15;3.69;;;;;;;21.21;71.83;100852.95;;;;-65
2021/09/07 16:27:12;;;;;;;5.69;3.65;;;;;;;21.21;71.81;100854.89;;;;-59
2021/09/07 16:30:12;;;;;;;7.33;3.80;;;;;;;21.22;71.80;100853.02;;;;-63
2021/09/07 16:33:12;;;;;;;7.39;3.67;;;;;;;21.22;71.77;100854.33;;;;-59
2021/09/07 16:36:12;;;;;;;8.77;3.81;;;;;;;21.22;71.86;100850.24;;;;-59
2021/09/07 16:39:12;;;;;;;7.87;3.70;;;;;;;21.22;71.89;100848.94;;;;-62